Time,TemperatureF,DewpointF,PressureIn,WindDirection,WindDirectionDegrees,WindSpeedMPH,WindSpeedGustMPH,Humidity,HourlyPrecipIn,Conditions,Clouds,dailyrainin,SoftwareType,DateUTC
2013-05-30 00:44:00,62.0,61.0,29.88,South,180,1.0,1.0,96,0.00,,,0.00,TxWx,2013-05-30 04:44:00,
2013-05-30 00:49:00,62.0,61.0,29.88,SSW,202,0.0,1.0,96,0.00,,,0.00,TxWx,2013-05-30 04:49:00,
2013-05-30 00:54:00,62.0,61.0,29.88,SSW,202,1.0,1.0,96,0.00,,,0.00,TxWx,2013-05-30 04:54:00,
2013-05-30 01:00:00,62.0,61.0,29.88,WSW,247,2.0,2.0,96,0.00,,,0.00,TxWx,2013-05-30 05:00:00,
2013-05-30 01:05:00,62.0,61.0,29.88,South,180,0.0,0.0,96,0.00,,,0.00,TxWx,2013-05-30 05:05:00,
2013-05-30 01:11:00,62.0,61.0,29.88,South,180,1.0,1.0,96,0.00,,,0.00,TxWx,2013-05-30 05:11:00,
2013-05-30 01:16:00,62.0,61.0,29.88,SSW,202,1.0,1.0,96,0.00,,,0.00,TxWx,2013-05-30 05:16:00,
2013-05-30 01:21:00,62.0,61.0,29.88,SW,225,1.0,1.0,96,0.00,,,0.00,TxWx,2013-05-30 05:21:00,
2013-05-30 01:26:00,62.0,61.0,29.88,SW,225,1.0,3.0,96,0.00,,,0.00,TxWx,2013-05-30 05:26:00,
2013-05-30 01:31:00,62.0,61.0,29.89,WSW,247,2.0,3.0,96,0.00,,,0.00,TxWx,2013-05-30 05:31:00,
2013-05-30 01:36:00,62.0,61.0,29.88,WSW,247,1.0,2.0,96,0.00,,,0.00,TxWx,2013-05-30 05:36:00,
2013-05-30 01:41:00,63.0,62.0,29.89,WNW,292,2.0,2.0,96,0.00,,,0.00,TxWx,2013-05-30 05:41:00,
2013-05-30 01:47:00,63.0,62.0,29.89,WSW,247,1.0,2.0,96,0.00,,,0.00,TxWx,2013-05-30 05:47:00,
2013-05-30 01:52:00,63.0,62.0,29.89,SW,225,1.0,1.0,96,0.00,,,0.00,TxWx,2013-05-30 05:52:00,
2013-05-30 01:57:00,63.0,62.0,29.89,West,270,3.0,3.0,96,0.00,,,0.00,TxWx,2013-05-30 05:57:00,
2013-05-30 02:02:00,63.0,62.0,29.89,SSW,202,3.0,3.0,96,0.00,,,0.00,TxWx,2013-05-30 06:02:00,
2013-05-30 02:07:00,63.0,62.0,29.89,SSW,202,1.0,3.0,97,0.00,,,0.00,TxWx,2013-05-30 06:07:00,
2013-05-30 02:13:00,63.0,62.0,29.89,West,270,1.0,2.0,97,0.00,,,0.00,TxWx,2013-05-30 06:13:00,
2013-05-30 02:18:00,63.0,62.0,29.89,SSW,202,1.0,1.0,97,0.00,,,0.00,TxWx,2013-05-30 06:18:00,
2013-05-30 02:23:00,63.0,62.0,29.90,West,270,3.0,3.0,97,0.00,,,0.00,TxWx,2013-05-30 06:23:00,
2013-05-30 02:28:00,63.0,62.0,29.90,SSW,202,1.0,1.0,97,0.00,,,0.00,TxWx,2013-05-30 06:28:00,
2013-05-30 02:33:00,63.0,62.0,29.90,West,270,4.0,5.0,97,0.00,,,0.00,TxWx,2013-05-30 06:33:00,
2013-05-30 02:38:00,63.0,62.0,29.90,SW,225,2.0,3.0,97,0.00,,,0.00,TxWx,2013-05-30 06:38:00,
2013-05-30 02:44:00,63.0,62.0,29.90,WSW,247,3.0,3.0,97,0.00,,,0.00,TxWx,2013-05-30 06:44:00,
2013-05-30 02:49:00,63.0,62.0,29.90,West,270,2.0,2.0,97,0.00,,,0.00,TxWx,2013-05-30 06:49:00,
2013-05-30 02:54:00,63.0,62.0,29.90,WNW,292,3.0,3.0,97,0.00,,,0.00,TxWx,2013-05-30 06:54:00,
2013-05-30 02:59:00,63.0,62.0,29.90,WSW,247,2.0,2.0,97,0.00,,,0.00,TxWx,2013-05-30 06:59:00,
2013-05-30 03:04:00,63.0,62.0,29.91,West,270,3.0,3.0,97,0.00,,,0.00,TxWx,2013-05-30 07:04:00,
2013-05-30 03:10:00,63.0,62.0,29.91,SSW,202,2.0,2.0,97,0.00,,,0.00,TxWx,2013-05-30 07:10:00,
2013-05-30 03:15:00,63.0,62.0,29.91,West,270,4.0,5.0,97,0.00,,,0.00,TxWx,2013-05-30 07:15:00,
2013-05-30 03:20:00,63.0,62.0,29.91,WSW,247,3.0,4.0,97,0.00,,,0.00,TxWx,2013-05-30 07:20:00,
2013-05-30 03:25:00,63.0,62.0,29.90,West,270,5.0,5.0,97,0.00,,,0.00,TxWx,2013-05-30 07:25:00,
2013-05-30 03:30:00,62.0,61.0,29.90,SW,225,3.0,3.0,97,0.00,,,0.00,TxWx,2013-05-30 07:30:00,
2013-05-30 03:36:00,62.0,61.0,29.91,West,270,4.0,4.0,97,0.00,,,0.00,TxWx,2013-05-30 07:36:00,
2013-05-30 03:41:00,62.0,61.0,29.90,WSW,247,3.0,3.0,97,0.00,,,0.00,TxWx,2013-05-30 07:41:00,
2013-05-30 03:46:00,62.0,61.0,29.91,SW,225,3.0,3.0,97,0.00,,,0.00,TxWx,2013-05-30 07:46:00,
2013-05-30 03:51:00,62.0,61.0,29.91,WSW,247,2.0,2.0,97,0.00,,,0.00,TxWx,2013-05-30 07:51:00,
2013-05-30 03:56:00,61.0,60.0,29.91,SW,225,2.0,3.0,97,0.00,,,0.00,TxWx,2013-05-30 07:56:00,
2013-05-30 04:02:00,61.0,60.0,29.91,SSW,202,3.0,4.0,97,0.00,,,0.00,TxWx,2013-05-30 08:02:00,
2013-05-30 04:07:00,61.0,60.0,29.91,West,270,2.0,2.0,97,0.00,,,0.00,TxWx,2013-05-30 08:07:00,
2013-05-30 04:12:00,61.0,60.0,29.91,West,270,2.0,2.0,97,0.00,,,0.00,TxWx,2013-05-30 08:12:00,
2013-05-30 04:17:00,61.0,60.0,29.90,SW,225,2.0,2.0,97,0.00,,,0.00,TxWx,2013-05-30 08:17:00,
2013-05-30 04:23:00,61.0,60.0,29.90,WSW,247,1.0,1.0,97,0.00,,,0.00,TxWx,2013-05-30 08:23:00,
2013-05-30 04:28:00,61.0,60.0,29.91,WNW,292,2.0,3.0,97,0.00,,,0.00,TxWx,2013-05-30 08:28:00,
2013-05-30 04:33:00,61.0,60.0,29.90,WSW,247,3.0,4.0,97,0.00,,,0.00,TxWx,2013-05-30 08:33:00,
2013-05-30 04:38:00,60.0,59.0,29.90,WSW,247,2.0,3.0,97,0.00,,,0.00,TxWx,2013-05-30 08:38:00,
2013-05-30 04:43:00,60.0,59.0,29.90,SSW,202,2.0,3.0,98,0.00,,,0.00,TxWx,2013-05-30 08:43:00,
2013-05-30 04:48:00,60.0,59.0,29.91,SW,225,2.0,2.0,98,0.00,,,0.00,TxWx,2013-05-30 08:48:00,
2013-05-30 04:53:00,60.0,59.0,29.91,SSW,202,1.0,2.0,98,0.00,,,0.00,TxWx,2013-05-30 08:53:00,
2013-05-30 04:58:00,60.0,59.0,29.92,WSW,247,1.0,2.0,98,0.00,,,0.00,TxWx,2013-05-30 08:58:00,
2013-05-30 05:03:00,60.0,59.0,29.92,SSW,202,3.0,3.0,98,0.00,,,0.00,TxWx,2013-05-30 09:03:00,
2013-05-30 05:09:00,60.0,59.0,29.92,West,270,2.0,3.0,98,0.00,,,0.00,TxWx,2013-05-30 09:09:00,
2013-05-30 05:14:00,60.0,59.0,29.92,SSW,202,1.0,1.0,98,0.00,,,0.00,TxWx,2013-05-30 09:14:00,
2013-05-30 05:19:00,60.0,59.0,29.92,SSW,202,1.0,1.0,98,0.00,,,0.00,TxWx,2013-05-30 09:19:00,
2013-05-30 05:24:00,60.0,59.0,29.92,SSW,202,0.0,0.0,98,0.00,,,0.00,TxWx,2013-05-30 09:24:00,
2013-05-30 05:29:00,60.0,59.0,29.92,SSW,202,0.0,0.0,98,0.00,,,0.00,TxWx,2013-05-30 09:29:00,
2013-05-30 05:34:00,60.0,59.0,29.92,SSW,202,0.0,0.0,98,0.00,,,0.00,TxWx,2013-05-30 09:34:00,
2013-05-30 05:39:00,60.0,59.0,29.92,SW,225,1.0,1.0,98,0.00,,,0.00,TxWx,2013-05-30 09:39:00,
2013-05-30 05:45:00,60.0,59.0,29.93,SW,225,2.0,2.0,98,0.00,,,0.00,TxWx,2013-05-30 09:45:00,
2013-05-30 05:50:00,60.0,59.0,29.93,West,270,2.0,3.0,98,0.00,,,0.00,TxWx,2013-05-30 09:50:00,
2013-05-30 05:55:00,60.0,59.0,29.93,SW,225,3.0,3.0,98,0.00,,,0.00,TxWx,2013-05-30 09:55:00,
2013-05-30 06:00:00,60.0,59.0,29.94,SSW,202,3.0,3.0,98,0.00,,,0.00,TxWx,2013-05-30 10:00:00,
2013-05-30 06:05:00,60.0,59.0,29.94,SW,225,1.0,2.0,98,0.00,,,0.00,TxWx,2013-05-30 10:05:00,
2013-05-30 06:10:00,60.0,59.0,29.94,SSW,202,0.0,1.0,98,0.00,,,0.00,TxWx,2013-05-30 10:10:00,
2013-05-30 06:16:00,60.0,59.0,29.94,WSW,247,2.0,2.0,98,0.00,,,0.00,TxWx,2013-05-30 10:16:00,
2013-05-30 06:21:00,60.0,59.0,29.94,WSW,247,2.0,2.0,98,0.00,,,0.00,TxWx,2013-05-30 10:21:00,
2013-05-30 06:26:00,60.0,59.0,29.94,SSW,202,1.0,1.0,98,0.00,,,0.00,TxWx,2013-05-30 10:26:00,
2013-05-30 06:31:00,60.0,59.0,29.94,SW,225,2.0,3.0,98,0.00,,,0.00,TxWx,2013-05-30 10:31:00,
2013-05-30 06:37:00,60.0,59.0,29.95,South,180,1.0,1.0,99,0.00,,,0.00,TxWx,2013-05-30 10:37:00,
2013-05-30 06:42:00,60.0,60.0,29.95,SSW,202,2.0,3.0,99,0.00,,,0.00,TxWx,2013-05-30 10:42:00,
2013-05-30 06:47:00,60.0,60.0,29.95,South,180,0.0,1.0,99,0.00,,,0.00,TxWx,2013-05-30 10:47:00,
2013-05-30 06:52:00,60.0,60.0,29.95,SW,225,3.0,3.0,99,0.00,,,0.00,TxWx,2013-05-30 10:52:00,
2013-05-30 06:57:00,60.0,60.0,29.95,SW,225,1.0,1.0,99,0.00,,,0.00,TxWx,2013-05-30 10:57:00,
2013-05-30 07:02:00,61.0,61.0,29.95,SW,225,2.0,3.0,99,0.00,,,0.00,TxWx,2013-05-30 11:02:00,
2013-05-30 07:07:00,61.0,61.0,29.95,WSW,247,2.0,2.0,99,0.00,,,0.00,TxWx,2013-05-30 11:07:00,
2013-05-30 07:12:00,61.0,61.0,29.94,SSW,202,1.0,3.0,99,0.00,,,0.00,TxWx,2013-05-30 11:12:00,
2013-05-30 07:17:00,62.0,62.0,29.95,SW,225,2.0,3.0,99,0.00,,,0.00,TxWx,2013-05-30 11:17:00,
2013-05-30 07:23:00,62.0,62.0,29.95,SSW,202,3.0,4.0,99,0.00,,,0.00,TxWx,2013-05-30 11:23:00,
2013-05-30 07:28:00,62.0,62.0,29.95,SW,225,2.0,2.0,99,0.00,,,0.00,TxWx,2013-05-30 11:28:00,
2013-05-30 07:33:00,63.0,63.0,29.95,SSW,202,3.0,3.0,99,0.00,,,0.00,TxWx,2013-05-30 11:33:00,
2013-05-30 07:38:00,63.0,63.0,29.95,SSE,157,1.0,2.0,99,0.00,,,0.00,TxWx,2013-05-30 11:38:00,
2013-05-30 07:43:00,63.0,63.0,29.95,SW,225,2.0,2.0,99,0.00,,,0.00,TxWx,2013-05-30 11:43:00,
2013-05-30 07:49:00,63.0,63.0,29.95,South,180,1.0,1.0,99,0.00,,,0.00,TxWx,2013-05-30 11:49:00,
2013-05-30 07:54:00,63.0,63.0,29.95,WSW,247,2.0,3.0,99,0.00,,,0.00,TxWx,2013-05-30 11:54:00,
2013-05-30 07:59:00,64.0,64.0,29.95,WSW,247,4.0,4.0,99,0.00,,,0.00,TxWx,2013-05-30 11:59:00,
2013-05-30 08:04:00,64.0,64.0,29.95,West,270,6.0,7.0,99,0.00,,,0.00,TxWx,2013-05-30 12:04:00,
2013-05-30 08:10:00,64.0,64.0,29.95,WSW,247,5.0,7.0,99,0.00,,,0.00,TxWx,2013-05-30 12:10:00,
2013-05-30 08:15:00,65.0,64.0,29.95,SW,225,4.0,4.0,98,0.00,,,0.00,TxWx,2013-05-30 12:15:00,
2013-05-30 08:20:00,65.0,64.0,29.95,SSW,202,2.0,3.0,98,0.00,,,0.00,TxWx,2013-05-30 12:20:00,
2013-05-30 08:25:00,65.0,64.0,29.95,WNW,292,3.0,6.0,97,0.00,,,0.00,TxWx,2013-05-30 12:25:00,
2013-05-30 08:30:00,65.0,64.0,29.95,West,270,2.0,3.0,97,0.00,,,0.00,TxWx,2013-05-30 12:30:00,
2013-05-30 08:35:00,66.0,65.0,29.95,WNW,292,6.0,6.0,96,0.00,,,0.00,TxWx,2013-05-30 12:35:00,
2013-05-30 08:41:00,66.0,65.0,29.95,WNW,292,3.0,3.0,96,0.00,,,0.00,TxWx,2013-05-30 12:41:00,
2013-05-30 08:46:00,66.0,65.0,29.95,WSW,247,1.0,1.0,96,0.00,,,0.00,TxWx,2013-05-30 12:46:00,
2013-05-30 08:51:00,67.0,65.0,29.95,West,270,10.0,10.0,95,0.00,,,0.00,TxWx,2013-05-30 12:51:00,
2013-05-30 08:56:00,67.0,65.0,29.96,West,270,5.0,6.0,94,0.00,,,0.00,TxWx,2013-05-30 12:56:00,
2013-05-30 09:01:00,67.0,65.0,29.96,West,270,5.0,6.0,93,0.00,,,0.00,TxWx,2013-05-30 13:01:00,
2013-05-30 09:06:00,67.0,65.0,29.96,West,270,4.0,5.0,92,0.00,,,0.00,TxWx,2013-05-30 13:06:00,
2013-05-30 09:11:00,67.0,64.0,29.96,NNE,22,3.0,5.0,92,0.00,,,0.00,TxWx,2013-05-30 13:11:00,
2013-05-30 09:16:00,68.0,65.0,29.96,South,180,1.0,2.0,92,0.00,,,0.00,TxWx,2013-05-30 13:16:00,
2013-05-30 09:21:00,69.0,66.0,29.96,NW,315,4.0,5.0,91,0.00,,,0.00,TxWx,2013-05-30 13:21:00,
2013-05-30 09:26:00,69.0,65.0,29.95,WSW,247,6.0,8.0,89,0.00,,,0.00,TxWx,2013-05-30 13:26:00,
2013-05-30 09:31:00,69.0,65.0,29.95,WSW,247,4.0,4.0,89,0.00,,,0.00,TxWx,2013-05-30 13:31:00,
2013-05-30 09:37:00,69.0,65.0,29.96,West,270,6.0,8.0,88,0.00,,,0.00,TxWx,2013-05-30 13:37:00,
2013-05-30 09:42:00,70.0,66.0,29.95,SW,225,6.0,7.0,87,0.00,,,0.00,TxWx,2013-05-30 13:42:00,
2013-05-30 09:47:00,70.0,65.0,29.95,SW,225,6.0,7.0,85,0.00,,,0.00,TxWx,2013-05-30 13:47:00,
2013-05-30 09:52:00,70.0,65.0,29.95,SW,225,7.0,7.0,85,0.00,,,0.00,TxWx,2013-05-30 13:52:00,
2013-05-30 09:57:00,71.0,66.0,29.95,NW,315,3.0,4.0,84,0.00,,,0.00,TxWx,2013-05-30 13:57:00,
2013-05-30 10:03:00,71.0,65.0,29.95,NW,315,7.0,7.0,82,0.00,,,0.00,TxWx,2013-05-30 14:03:00,
2013-05-30 10:08:00,72.0,66.0,29.96,SW,225,3.0,4.0,82,0.00,,,0.00,TxWx,2013-05-30 14:08:00,
2013-05-30 10:13:00,72.0,65.0,29.96,North,0,3.0,4.0,79,0.00,,,0.00,TxWx,2013-05-30 14:13:00,
2013-05-30 10:18:00,71.0,64.0,29.96,WNW,292,6.0,8.0,79,0.00,,,0.00,TxWx,2013-05-30 14:18:00,
2013-05-30 10:23:00,71.0,64.0,29.96,WSW,247,7.0,11.0,79,0.00,,,0.00,TxWx,2013-05-30 14:23:00,
2013-05-30 10:29:00,71.0,64.0,29.96,NW,315,3.0,6.0,79,0.00,,,0.00,TxWx,2013-05-30 14:29:00,
2013-05-30 10:34:00,71.0,64.0,29.95,West,270,10.0,10.0,78,0.00,,,0.00,TxWx,2013-05-30 14:34:00,
2013-05-30 10:39:00,72.0,64.0,29.95,WSW,247,5.0,6.0,77,0.00,,,0.00,TxWx,2013-05-30 14:39:00,
2013-05-30 10:44:00,72.0,65.0,29.96,SW,225,3.0,6.0,78,0.00,,,0.00,TxWx,2013-05-30 14:44:00,
2013-05-30 10:49:00,72.0,63.0,29.96,WNW,292,6.0,8.0,75,0.00,,,0.00,TxWx,2013-05-30 14:49:00,
2013-05-30 10:54:00,73.0,64.0,29.95,WNW,292,4.0,6.0,75,0.00,,,0.00,TxWx,2013-05-30 14:54:00,
2013-05-30 10:59:00,73.0,64.0,29.96,WNW,292,8.0,8.0,73,0.00,,,0.00,TxWx,2013-05-30 14:59:00,
2013-05-30 11:04:00,73.0,64.0,29.96,SW,225,4.0,7.0,73,0.00,,,0.00,TxWx,2013-05-30 15:04:00,
2013-05-30 11:09:00,73.0,64.0,29.96,WSW,247,5.0,6.0,73,0.00,,,0.00,TxWx,2013-05-30 15:09:00,
2013-05-30 11:14:00,73.0,63.0,29.96,WNW,292,8.0,8.0,71,0.00,,,0.00,TxWx,2013-05-30 15:14:00,
2013-05-30 11:20:00,74.0,64.0,29.96,WSW,247,9.0,9.0,72,0.00,,,0.00,TxWx,2013-05-30 15:20:00,
2013-05-30 11:25:00,74.0,63.0,29.96,WSW,247,7.0,9.0,69,0.00,,,0.00,TxWx,2013-05-30 15:25:00,
2013-05-30 11:30:00,74.0,63.0,29.96,SW,225,8.0,12.0,68,0.00,,,0.00,TxWx,2013-05-30 15:30:00,
2013-05-30 11:35:00,75.0,63.0,29.96,West,270,7.0,9.0,66,0.00,,,0.00,TxWx,2013-05-30 15:35:00,
2013-05-30 11:40:00,75.0,62.0,29.96,NW,315,7.0,8.0,64,0.00,,,0.00,TxWx,2013-05-30 15:40:00,
2013-05-30 11:46:00,75.0,62.0,29.96,WNW,292,4.0,8.0,65,0.00,,,0.00,TxWx,2013-05-30 15:46:00,
2013-05-30 11:51:00,75.0,63.0,29.96,WSW,247,10.0,10.0,67,0.00,,,0.00,TxWx,2013-05-30 15:51:00,
2013-05-30 11:56:00,76.0,63.0,29.96,West,270,13.0,14.0,64,0.00,,,0.00,TxWx,2013-05-30 15:56:00,
2013-05-30 12:01:00,76.0,62.0,29.96,WSW,247,7.0,7.0,62,0.00,,,0.00,TxWx,2013-05-30 16:01:00,
2013-05-30 12:06:00,76.0,61.0,29.95,WNW,292,7.0,8.0,61,0.00,,,0.00,TxWx,2013-05-30 16:06:00,
2013-05-30 12:12:00,75.0,61.0,29.95,NW,315,8.0,12.0,62,0.00,,,0.00,TxWx,2013-05-30 16:12:00,
2013-05-30 12:17:00,75.0,61.0,29.95,WNW,292,7.0,8.0,63,0.00,,,0.00,TxWx,2013-05-30 16:17:00,
2013-05-30 12:22:00,76.0,62.0,29.95,SW,225,3.0,5.0,61,0.00,,,0.00,TxWx,2013-05-30 16:22:00,
2013-05-30 12:27:00,76.0,62.0,29.95,NW,315,10.0,10.0,61,0.00,,,0.00,TxWx,2013-05-30 16:27:00,
2013-05-30 12:32:00,77.0,62.0,29.94,SSW,202,5.0,6.0,61,0.00,,,0.00,TxWx,2013-05-30 16:32:00,
2013-05-30 12:37:00,77.0,62.0,29.94,SW,225,10.0,11.0,61,0.00,,,0.00,TxWx,2013-05-30 16:37:00,
2013-05-30 12:43:00,77.0,62.0,29.94,West,270,4.0,10.0,60,0.00,,,0.00,TxWx,2013-05-30 16:43:00,
2013-05-30 12:48:00,77.0,60.0,29.94,WNW,292,8.0,12.0,56,0.00,,,0.00,TxWx,2013-05-30 16:48:00,
2013-05-30 12:53:00,77.0,60.0,29.94,WNW,292,9.0,10.0,57,0.00,,,0.00,TxWx,2013-05-30 16:53:00,
2013-05-30 12:58:00,77.0,60.0,29.94,WNW,292,6.0,8.0,57,0.00,,,0.00,TxWx,2013-05-30 16:58:00,
2013-05-30 13:03:00,77.0,60.0,29.94,West,270,8.0,9.0,57,0.00,,,0.00,TxWx,2013-05-30 17:03:00,
2013-05-30 13:09:00,78.0,61.0,29.94,West,270,5.0,5.0,56,0.00,,,0.00,TxWx,2013-05-30 17:09:00,
2013-05-30 13:14:00,79.0,61.0,29.94,West,270,10.0,10.0,55,0.00,,,0.00,TxWx,2013-05-30 17:14:00,
2013-05-30 13:19:00,79.0,61.0,29.94,North,0,5.0,5.0,54,0.00,,,0.00,TxWx,2013-05-30 17:19:00,
2013-05-30 13:24:00,79.0,61.0,29.94,SSW,202,8.0,11.0,54,0.00,,,0.00,TxWx,2013-05-30 17:24:00,
2013-05-30 13:29:00,79.0,61.0,29.94,NW,315,5.0,7.0,54,0.00,,,0.00,TxWx,2013-05-30 17:29:00,
2013-05-30 13:35:00,79.0,60.0,29.94,NW,315,16.0,16.0,53,0.00,,,0.00,TxWx,2013-05-30 17:35:00,
2013-05-30 13:40:00,79.0,61.0,29.94,NW,315,6.0,6.0,54,0.00,,,0.00,TxWx,2013-05-30 17:40:00,
2013-05-30 13:45:00,79.0,61.0,29.94,SW,225,6.0,6.0,55,0.00,,,0.00,TxWx,2013-05-30 17:45:00,
2013-05-30 13:50:00,79.0,60.0,29.94,WNW,292,7.0,7.0,53,0.00,,,0.00,TxWx,2013-05-30 17:50:00,
2013-05-30 13:55:00,79.0,60.0,29.94,West,270,6.0,8.0,53,0.00,,,0.00,TxWx,2013-05-30 17:55:00,
2013-05-30 14:00:00,79.0,60.0,29.94,WSW,247,6.0,11.0,52,0.00,,,0.00,TxWx,2013-05-30 18:00:00,
2013-05-30 14:05:00,79.0,60.0,29.94,West,270,8.0,11.0,52,0.00,,,0.00,TxWx,2013-05-30 18:05:00,
2013-05-30 14:10:00,79.0,59.0,29.93,SSW,202,4.0,10.0,51,0.00,,,0.00,TxWx,2013-05-30 18:10:00,
2013-05-30 14:15:00,79.0,59.0,29.93,West,270,6.0,7.0,51,0.00,,,0.00,TxWx,2013-05-30 18:15:00,
2013-05-30 14:21:00,80.0,61.0,29.93,SW,225,5.0,5.0,52,0.00,,,0.00,TxWx,2013-05-30 18:21:00,
2013-05-30 14:26:00,80.0,59.0,29.93,WNW,292,8.0,10.0,49,0.00,,,0.00,TxWx,2013-05-30 18:26:00,
2013-05-30 14:31:00,80.0,60.0,29.93,ENE,67,3.0,6.0,51,0.00,,,0.00,TxWx,2013-05-30 18:31:00,
2013-05-30 14:36:00,80.0,60.0,29.93,WSW,247,5.0,8.0,51,0.00,,,0.00,TxWx,2013-05-30 18:36:00,
2013-05-30 14:41:00,80.0,60.0,29.93,West,270,4.0,6.0,51,0.00,,,0.00,TxWx,2013-05-30 18:41:00,
2013-05-30 14:47:00,80.0,60.0,29.93,WNW,292,5.0,6.0,50,0.00,,,0.00,TxWx,2013-05-30 18:47:00,
2013-05-30 14:52:00,80.0,60.0,29.93,NW,315,14.0,14.0,50,0.00,,,0.00,TxWx,2013-05-30 18:52:00,
2013-05-30 14:57:00,80.0,60.0,29.93,SW,225,11.0,12.0,51,0.00,,,0.00,TxWx,2013-05-30 18:57:00,
2013-05-30 15:00:00,60.0,57.0,29.95,SSW,202,1.0,1.0,91,0.00,,,0.00,TxWx,2013-05-30 19:00:00,
2013-05-30 15:01:00,60.0,57.0,29.95,SSW,202,1.0,1.0,91,0.00,,,0.00,TxWx,2013-05-30 19:01:00,
2013-05-30 15:02:00,80.0,59.0,29.93,West,270,5.0,6.0,49,0.00,,,0.00,TxWx,2013-05-30 19:02:00,
2013-05-30 15:03:00,60.0,58.0,29.95,SSW,202,1.0,1.0,92,0.00,,,0.00,TxWx,2013-05-30 19:03:00,
2013-05-30 15:04:00,60.0,58.0,29.95,SSW,202,1.0,1.0,92,0.00,,,0.00,TxWx,2013-05-30 19:04:00,
2013-05-30 15:05:00,60.0,58.0,29.95,SW,225,1.0,1.0,92,0.00,,,0.00,TxWx,2013-05-30 19:05:00,
2013-05-30 15:06:00,60.0,58.0,29.95,SSW,202,1.0,1.0,92,0.00,,,0.00,TxWx,2013-05-30 19:06:00,
2013-05-30 15:07:00,80.0,60.0,29.93,WSW,247,10.0,10.0,50,0.00,,,0.00,TxWx,2013-05-30 19:07:00,
2013-05-30 15:08:00,59.0,57.0,29.95,SSW,202,1.0,1.0,92,0.00,,,0.00,TxWx,2013-05-30 19:08:00,
2013-05-30 15:09:00,59.0,57.0,29.95,SSW,202,1.0,1.0,92,0.00,,,0.00,TxWx,2013-05-30 19:09:00,
2013-05-30 15:10:00,59.0,57.0,29.95,SSW,202,1.0,1.0,92,0.00,,,0.00,TxWx,2013-05-30 19:10:00,
2013-05-30 15:11:00,59.0,57.0,29.95,SSW,202,1.0,1.0,92,0.00,,,0.00,TxWx,2013-05-30 19:11:00,
2013-05-30 15:12:00,59.0,57.0,29.94,SSW,202,0.0,1.0,92,0.00,,,0.00,TxWx,2013-05-30 19:12:00,
2013-05-30 15:13:00,80.0,60.0,29.93,SW,225,3.0,5.0,51,0.00,,,0.00,TxWx,2013-05-30 19:13:00,
2013-05-30 15:14:00,59.0,57.0,29.94,SSW,202,0.0,1.0,92,0.00,,,0.00,TxWx,2013-05-30 19:14:00,
2013-05-30 15:15:00,59.0,57.0,29.94,South,180,0.0,0.0,92,0.00,,,0.00,TxWx,2013-05-30 19:15:00,
2013-05-30 15:16:00,59.0,57.0,29.94,South,180,0.0,1.0,92,0.00,,,0.00,TxWx,2013-05-30 19:16:00,
2013-05-30 15:17:00,59.0,57.0,29.94,South,180,0.0,0.0,92,0.00,,,0.00,TxWx,2013-05-30 19:17:00,
2013-05-30 15:18:00,80.0,60.0,29.93,WNW,292,13.0,13.0,51,0.00,,,0.00,TxWx,2013-05-30 19:18:00,
2013-05-30 15:19:00,59.0,57.0,29.95,SSW,202,0.0,0.0,92,0.00,,,0.00,TxWx,2013-05-30 19:19:00,
2013-05-30 15:20:00,59.0,57.0,29.94,South,180,0.0,0.0,92,0.00,,,0.00,TxWx,2013-05-30 19:20:00,
2013-05-30 15:21:00,59.0,57.0,29.95,SSW,202,0.0,0.0,92,0.00,,,0.00,TxWx,2013-05-30 19:21:00,
2013-05-30 15:22:00,59.0,57.0,29.95,SSW,202,0.0,0.0,92,0.00,,,0.00,TxWx,2013-05-30 19:22:00,
2013-05-30 15:23:00,80.0,60.0,29.93,North,0,5.0,5.0,51,0.00,,,0.00,TxWx,2013-05-30 19:23:00,
2013-05-30 15:24:00,59.0,57.0,29.95,South,180,0.0,0.0,92,0.00,,,0.00,TxWx,2013-05-30 19:24:00,
2013-05-30 15:25:00,59.0,57.0,29.95,South,180,0.0,1.0,92,0.00,,,0.00,TxWx,2013-05-30 19:25:00,
2013-05-30 15:26:00,59.0,57.0,29.95,SE,135,1.0,1.0,92,0.00,,,0.00,TxWx,2013-05-30 19:26:00,
2013-05-30 15:27:00,59.0,57.0,29.95,South,180,1.0,1.0,92,0.00,,,0.00,TxWx,2013-05-30 19:27:00,
2013-05-30 15:28:00,59.0,57.0,29.95,South,180,0.0,0.0,92,0.00,,,0.00,TxWx,2013-05-30 19:28:00,
2013-05-30 15:29:00,80.0,60.0,29.92,SSW,202,7.0,8.0,51,0.00,,,0.00,TxWx,2013-05-30 19:29:00,
2013-05-30 15:30:00,59.0,57.0,29.95,South,180,0.0,0.0,92,0.00,,,0.00,TxWx,2013-05-30 19:30:00,
2013-05-30 15:31:00,59.0,57.0,29.95,SSE,157,1.0,1.0,92,0.00,,,0.00,TxWx,2013-05-30 19:31:00,
2013-05-30 15:32:00,59.0,57.0,29.95,SSW,202,0.0,0.0,92,0.00,,,0.00,TxWx,2013-05-30 19:32:00,
2013-05-30 15:33:00,59.0,57.0,29.95,South,180,0.0,1.0,92,0.00,,,0.00,TxWx,2013-05-30 19:33:00,
2013-05-30 15:34:00,80.0,60.0,29.92,West,270,8.0,11.0,51,0.00,,,0.00,TxWx,2013-05-30 19:34:00,
2013-05-30 15:35:00,59.0,57.0,29.95,South,180,0.0,0.0,92,0.00,,,0.00,TxWx,2013-05-30 19:35:00,
2013-05-30 15:36:00,59.0,57.0,29.95,South,180,0.0,1.0,92,0.00,,,0.00,TxWx,2013-05-30 19:36:00,
2013-05-30 15:37:00,59.0,57.0,29.95,SSW,202,1.0,1.0,92,0.00,,,0.00,TxWx,2013-05-30 19:37:00,
2013-05-30 15:38:00,59.0,57.0,29.95,South,180,0.0,1.0,92,0.00,,,0.00,TxWx,2013-05-30 19:38:00,
2013-05-30 15:39:00,80.0,60.0,29.92,WSW,247,5.0,5.0,51,0.00,,,0.00,TxWx,2013-05-30 19:39:00,
2013-05-30 15:40:00,59.0,57.0,29.95,SSW,202,0.0,0.0,93,0.00,,,0.00,TxWx,2013-05-30 19:40:00,
2013-05-30 15:41:00,59.0,56.0,29.95,SSW,202,0.0,0.0,93,0.00,,,0.00,TxWx,2013-05-30 19:41:00,
2013-05-30 15:42:00,58.0,56.0,29.95,SSW,202,0.0,0.0,93,0.00,,,0.00,TxWx,2013-05-30 19:42:00,
2013-05-30 15:43:00,58.0,56.0,29.95,South,180,0.0,0.0,93,0.00,,,0.00,TxWx,2013-05-30 19:43:00,
2013-05-30 15:45:00,80.0,60.0,29.92,WNW,292,8.0,8.0,50,0.00,,,0.00,TxWx,2013-05-30 19:45:00,
2013-05-30 15:46:00,58.0,56.0,29.95,South,180,0.0,0.0,93,0.00,,,0.00,TxWx,2013-05-30 19:46:00,
2013-05-30 15:47:00,58.0,56.0,29.95,South,180,0.0,0.0,93,0.00,,,0.00,TxWx,2013-05-30 19:47:00,
2013-05-30 15:48:00,58.0,56.0,29.95,SSW,202,0.0,0.0,93,0.00,,,0.00,TxWx,2013-05-30 19:48:00,
2013-05-30 15:49:00,58.0,56.0,29.95,SSW,202,1.0,1.0,93,0.00,,,0.00,TxWx,2013-05-30 19:49:00,
2013-05-30 15:50:00,80.0,59.0,29.92,West,270,7.0,7.0,49,0.00,,,0.00,TxWx,2013-05-30 19:50:00,
2013-05-30 15:53:00,58.0,56.0,29.95,SSW,202,1.0,1.0,93,0.00,,,0.00,TxWx,2013-05-30 19:53:00,
2013-05-30 15:55:00,80.0,59.0,29.92,WSW,247,5.0,7.0,49,0.00,,,0.00,TxWx,2013-05-30 19:55:00,
2013-05-30 15:57:00,58.0,56.0,29.95,SSW,202,1.0,1.0,93,0.00,,,0.00,TxWx,2013-05-30 19:57:00,
2013-05-30 15:59:00,58.0,56.0,29.95,SSW,202,1.0,1.0,93,0.00,,,0.00,TxWx,2013-05-30 19:59:00,
2013-05-30 16:00:00,80.0,59.0,29.92,West,270,3.0,5.0,50,0.00,,,0.00,TxWx,2013-05-30 20:00:00,
2013-05-30 16:03:00,58.0,56.0,29.95,South,180,0.0,0.0,93,0.00,,,0.00,TxWx,2013-05-30 20:03:00,
2013-05-30 16:05:00,80.0,59.0,29.92,WNW,292,7.0,7.0,49,0.00,,,0.00,TxWx,2013-05-30 20:05:00,
2013-05-30 16:11:00,80.0,59.0,29.92,SE,135,5.0,6.0,49,0.00,,,0.00,TxWx,2013-05-30 20:11:00,
2013-05-30 16:16:00,80.0,60.0,29.92,WNW,292,6.0,6.0,51,0.00,,,0.00,TxWx,2013-05-30 20:16:00,
2013-05-30 16:21:00,80.0,60.0,29.92,South,180,6.0,9.0,50,0.00,,,0.00,TxWx,2013-05-30 20:21:00,
2013-05-30 16:26:00,80.0,59.0,29.92,WSW,247,8.0,8.0,50,0.00,,,0.00,TxWx,2013-05-30 20:26:00,
2013-05-30 16:31:00,80.0,59.0,29.92,South,180,5.0,10.0,49,0.00,,,0.00,TxWx,2013-05-30 20:31:00,
2013-05-30 16:36:00,80.0,59.0,29.92,WNW,292,8.0,12.0,50,0.00,,,0.00,TxWx,2013-05-30 20:36:00,
2013-05-30 16:42:00,80.0,59.0,29.92,WSW,247,5.0,8.0,50,0.00,,,0.00,TxWx,2013-05-30 20:42:00,
2013-05-30 16:47:00,80.0,59.0,29.92,WNW,292,5.0,5.0,50,0.00,,,0.00,TxWx,2013-05-30 20:47:00,
2013-05-30 16:52:00,80.0,58.0,29.92,WSW,247,14.0,14.0,48,0.00,,,0.00,TxWx,2013-05-30 20:52:00,
2013-05-30 16:57:00,80.0,58.0,29.92,North,0,6.0,11.0,48,0.00,,,0.00,TxWx,2013-05-30 20:57:00,
2013-05-30 17:02:00,80.0,58.0,29.91,West,270,6.0,6.0,48,0.00,,,0.00,TxWx,2013-05-30 21:02:00,
2013-05-30 17:08:00,80.0,59.0,29.91,WSW,247,5.0,5.0,49,0.00,,,0.00,TxWx,2013-05-30 21:08:00,
2013-05-30 17:13:00,80.0,59.0,29.91,SW,225,4.0,6.0,49,0.00,,,0.00,TxWx,2013-05-30 21:13:00,
2013-05-30 17:18:00,80.0,59.0,29.91,WNW,292,8.0,9.0,49,0.00,,,0.00,TxWx,2013-05-30 21:18:00,
2013-05-30 17:24:00,80.0,59.0,29.91,WSW,247,6.0,8.0,50,0.00,,,0.00,TxWx,2013-05-30 21:24:00,
2013-05-30 17:29:00,80.0,60.0,29.91,SE,135,4.0,6.0,51,0.00,,,0.00,TxWx,2013-05-30 21:29:00,
2013-05-30 17:34:00,80.0,60.0,29.91,WNW,292,10.0,10.0,51,0.00,,,0.00,TxWx,2013-05-30 21:34:00,
2013-05-30 17:40:00,79.0,59.0,29.91,WNW,292,8.0,9.0,51,0.00,,,0.00,TxWx,2013-05-30 21:40:00,
2013-05-30 17:45:00,79.0,60.0,29.91,WSW,247,5.0,7.0,52,0.00,,,0.00,TxWx,2013-05-30 21:45:00,
2013-05-30 17:50:00,79.0,60.0,29.91,WSW,247,5.0,6.0,52,0.00,,,0.00,TxWx,2013-05-30 21:50:00,
2013-05-30 17:55:00,79.0,60.0,29.91,North,0,3.0,3.0,53,0.00,,,0.00,TxWx,2013-05-30 21:55:00,
2013-05-30 18:01:00,79.0,60.0,29.91,South,180,5.0,7.0,53,0.00,,,0.00,TxWx,2013-05-30 22:01:00,
2013-05-30 18:06:00,79.0,61.0,29.91,West,270,16.0,16.0,54,0.00,,,0.00,TxWx,2013-05-30 22:06:00,
2013-05-30 18:11:00,79.0,61.0,29.91,West,270,8.0,8.0,54,0.00,,,0.00,TxWx,2013-05-30 22:11:00,
2013-05-30 18:17:00,79.0,61.0,29.91,WSW,247,6.0,6.0,54,0.00,,,0.00,TxWx,2013-05-30 22:17:00,
2013-05-30 18:22:00,78.0,60.0,29.91,WSW,247,10.0,10.0,55,0.00,,,0.00,TxWx,2013-05-30 22:22:00,
2013-05-30 18:27:00,78.0,60.0,29.91,West,270,5.0,7.0,55,0.00,,,0.00,TxWx,2013-05-30 22:27:00,
2013-05-30 18:32:00,78.0,61.0,29.91,West,270,8.0,8.0,56,0.00,,,0.00,TxWx,2013-05-30 22:32:00,
2013-05-30 18:38:00,78.0,61.0,29.91,SW,225,3.0,5.0,57,0.00,,,0.00,TxWx,2013-05-30 22:38:00,
2013-05-30 18:43:00,78.0,61.0,29.91,WSW,247,6.0,7.0,57,0.00,,,0.00,TxWx,2013-05-30 22:43:00,
2013-05-30 18:48:00,78.0,61.0,29.91,NNE,22,4.0,6.0,57,0.00,,,0.00,TxWx,2013-05-30 22:48:00,
2013-05-30 18:54:00,78.0,61.0,29.91,WSW,247,3.0,6.0,57,0.00,,,0.00,TxWx,2013-05-30 22:54:00,
2013-05-30 18:59:00,78.0,61.0,29.91,WSW,247,5.0,6.0,57,0.00,,,0.00,TxWx,2013-05-30 22:59:00,
2013-05-30 19:04:00,78.0,62.0,29.91,WNW,292,5.0,8.0,58,0.00,,,0.00,TxWx,2013-05-30 23:04:00,
2013-05-30 19:09:00,77.0,61.0,29.92,West,270,10.0,10.0,58,0.00,,,0.00,TxWx,2013-05-30 23:09:00,
2013-05-30 19:15:00,77.0,61.0,29.92,WNW,292,5.0,8.0,59,0.00,,,0.00,TxWx,2013-05-30 23:15:00,
2013-05-30 19:20:00,77.0,62.0,29.92,WNW,292,4.0,5.0,59,0.00,,,0.00,TxWx,2013-05-30 23:20:00,
2013-05-30 19:25:00,77.0,62.0,29.92,WNW,292,4.0,5.0,59,0.00,,,0.00,TxWx,2013-05-30 23:25:00,
2013-05-30 19:31:00,77.0,62.0,29.92,WNW,292,2.0,2.0,60,0.00,,,0.00,TxWx,2013-05-30 23:31:00,
2013-05-30 19:36:00,76.0,61.0,29.92,North,0,2.0,3.0,61,0.00,,,0.00,TxWx,2013-05-30 23:36:00,
2013-05-30 19:41:00,76.0,62.0,29.92,SW,225,3.0,3.0,61,0.00,,,0.00,TxWx,2013-05-30 23:41:00,
2013-05-30 19:46:00,76.0,62.0,29.92,West,270,3.0,3.0,62,0.00,,,0.00,TxWx,2013-05-30 23:46:00,
2013-05-30 19:51:00,76.0,62.0,29.92,SSW,202,1.0,2.0,62,0.00,,,0.00,TxWx,2013-05-30 23:51:00,
2013-05-30 19:56:00,75.0,61.0,29.92,West,270,2.0,3.0,63,0.00,,,0.00,TxWx,2013-05-30 23:56:00,
2013-05-30 20:02:00,75.0,62.0,29.92,SW,225,1.0,2.0,63,0.00,,,0.00,TxWx,2013-05-31 00:02:00,
2013-05-30 20:07:00,75.0,62.0,29.92,SSW,202,1.0,1.0,64,0.00,,,0.00,TxWx,2013-05-31 00:07:00,
2013-05-30 20:12:00,74.0,61.0,29.92,WSW,247,1.0,2.0,64,0.00,,,0.00,TxWx,2013-05-31 00:12:00,
2013-05-30 20:17:00,74.0,61.0,29.92,WSW,247,2.0,3.0,65,0.00,,,0.00,TxWx,2013-05-31 00:17:00,
2013-05-30 20:23:00,74.0,62.0,29.92,SW,225,1.0,2.0,66,0.00,,,0.00,TxWx,2013-05-31 00:23:00,
2013-05-30 20:28:00,73.0,61.0,29.91,WSW,247,1.0,1.0,66,0.00,,,0.00,TxWx,2013-05-31 00:28:00,
2013-05-30 20:33:00,73.0,61.0,29.92,South,180,1.0,1.0,67,0.00,,,0.00,TxWx,2013-05-31 00:33:00,
2013-05-30 20:38:00,72.0,61.0,29.92,SW,225,1.0,1.0,68,0.00,,,0.00,TxWx,2013-05-31 00:38:00,
2013-05-30 20:43:00,72.0,61.0,29.92,South,180,1.0,1.0,69,0.00,,,0.00,TxWx,2013-05-31 00:43:00,
2013-05-30 20:48:00,72.0,61.0,29.92,WSW,247,1.0,1.0,69,0.00,,,0.00,TxWx,2013-05-31 00:48:00,
2013-05-30 20:54:00,71.0,61.0,29.92,SSW,202,1.0,1.0,70,0.00,,,0.00,TxWx,2013-05-31 00:54:00,
2013-05-30 20:59:00,71.0,61.0,29.92,SW,225,1.0,2.0,71,0.00,,,0.00,TxWx,2013-05-31 00:59:00,
2013-05-30 21:04:00,70.0,60.0,29.92,SSW,202,1.0,1.0,71,0.00,,,0.00,TxWx,2013-05-31 01:04:00,
2013-05-30 21:10:00,69.0,60.0,29.92,SW,225,2.0,2.0,72,0.00,,,0.00,TxWx,2013-05-31 01:10:00,
2013-05-30 21:15:00,69.0,60.0,29.93,SW,225,0.0,0.0,74,0.00,,,0.00,TxWx,2013-05-31 01:15:00,
2013-05-30 21:20:00,68.0,59.0,29.93,SSW,202,0.0,0.0,74,0.00,,,0.00,TxWx,2013-05-31 01:20:00,
2013-05-30 21:25:00,67.0,59.0,29.93,SSW,202,0.0,0.0,75,0.00,,,0.00,TxWx,2013-05-31 01:25:00,
2013-05-30 21:31:00,67.0,60.0,29.93,SSW,202,1.0,1.0,77,0.00,,,0.00,TxWx,2013-05-31 01:31:00,
2013-05-30 21:36:00,66.0,59.0,29.93,South,180,0.0,0.0,78,0.00,,,0.00,TxWx,2013-05-31 01:36:00,
2013-05-30 21:41:00,66.0,59.0,29.93,SSE,157,0.0,0.0,79,0.00,,,0.00,TxWx,2013-05-31 01:41:00,
2013-05-30 21:46:00,65.0,58.0,29.93,South,180,0.0,1.0,80,0.00,,,0.00,TxWx,2013-05-31 01:46:00,
2013-05-30 21:51:00,65.0,59.0,29.93,SSE,157,1.0,1.0,81,0.00,,,0.00,TxWx,2013-05-31 01:51:00,
2013-05-30 21:57:00,65.0,59.0,29.93,SSW,202,0.0,0.0,81,0.00,,,0.00,TxWx,2013-05-31 01:57:00,
2013-05-30 22:02:00,64.0,58.0,29.93,SW,225,1.0,1.0,82,0.00,,,0.00,TxWx,2013-05-31 02:02:00,
2013-05-30 22:08:00,64.0,59.0,29.94,South,180,0.0,0.0,83,0.00,,,0.00,TxWx,2013-05-31 02:08:00,
2013-05-30 22:13:00,64.0,59.0,29.94,SSW,202,0.0,0.0,83,0.00,,,0.00,TxWx,2013-05-31 02:13:00,
2013-05-30 22:18:00,64.0,59.0,29.94,SSW,202,0.0,0.0,84,0.00,,,0.00,TxWx,2013-05-31 02:18:00,
2013-05-30 22:23:00,63.0,58.0,29.94,SSW,202,1.0,1.0,85,0.00,,,0.00,TxWx,2013-05-31 02:23:00,
2013-05-30 22:29:00,63.0,58.0,29.94,SSW,202,0.0,0.0,85,0.00,,,0.00,TxWx,2013-05-31 02:29:00,
2013-05-30 22:34:00,63.0,59.0,29.94,SSW,202,2.0,2.0,86,0.00,,,0.00,TxWx,2013-05-31 02:34:00,
2013-05-30 22:39:00,62.0,58.0,29.94,SSW,202,1.0,1.0,87,0.00,,,0.00,TxWx,2013-05-31 02:39:00,
2013-05-30 22:44:00,62.0,58.0,29.94,SSW,202,0.0,0.0,87,0.00,,,0.00,TxWx,2013-05-31 02:44:00,
2013-05-30 22:49:00,62.0,58.0,29.94,South,180,0.0,0.0,87,0.00,,,0.00,TxWx,2013-05-31 02:49:00,
2013-05-30 22:55:00,62.0,58.0,29.94,SE,135,1.0,1.0,88,0.00,,,0.00,TxWx,2013-05-31 02:55:00,
2013-05-30 23:00:00,62.0,58.0,29.94,SSW,202,0.0,0.0,88,0.00,,,0.00,TxWx,2013-05-31 03:00:00,
2013-05-30 23:05:00,61.0,57.0,29.95,South,180,0.0,1.0,88,0.00,,,0.00,TxWx,2013-05-31 03:05:00,
2013-05-30 23:10:00,61.0,57.0,29.95,SSW,202,0.0,0.0,88,0.00,,,0.00,TxWx,2013-05-31 03:10:00,
2013-05-30 23:15:00,61.0,58.0,29.95,SSW,202,0.0,0.0,89,0.00,,,0.00,TxWx,2013-05-31 03:15:00,
2013-05-30 23:20:00,61.0,58.0,29.95,SW,225,1.0,1.0,89,0.00,,,0.00,TxWx,2013-05-31 03:20:00,
2013-05-30 23:26:00,61.0,58.0,29.95,SSW,202,1.0,1.0,90,0.00,,,0.00,TxWx,2013-05-31 03:26:00,
2013-05-30 23:31:00,61.0,58.0,29.95,SSW,202,0.0,0.0,90,0.00,,,0.00,TxWx,2013-05-31 03:31:00,
2013-05-30 23:36:00,60.0,57.0,29.95,SSW,202,1.0,1.0,90,0.00,,,0.00,TxWx,2013-05-31 03:36:00,
2013-05-30 23:41:00,60.0,57.0,29.95,SSW,202,0.0,0.0,90,0.00,,,0.00,TxWx,2013-05-31 03:41:00,
2013-05-30 23:46:00,60.0,57.0,29.95,South,180,0.0,0.0,90,0.00,,,0.00,TxWx,2013-05-31 03:46:00,
2013-05-30 23:51:00,60.0,57.0,29.95,SW,225,1.0,1.0,91,0.00,,,0.00,TxWx,2013-05-31 03:51:00,
2013-05-30 23:56:00,60.0,57.0,29.95,WSW,247,2.0,3.0,91,0.00,,,0.00,TxWx,2013-05-31 03:56:00,